createdAt,value
2018-04-14T00:01:18.509Z,17.80
2018-04-14T00:03:46.345Z,17.80
2018-04-14T00:06:14.221Z,17.70
2018-04-14T00:08:42.900Z,17.60
2018-04-14T00:11:10.816Z,17.60
2018-04-14T00:13:38.628Z,17.60
2018-04-14T00:16:07.762Z,17.60
2018-04-14T00:18:35.582Z,17.60
2018-04-14T00:21:03.424Z,17.60
2018-04-14T00:23:31.283Z,17.60
2018-04-14T00:25:59.126Z,17.50
2018-04-14T00:28:27.695Z,17.50
2018-04-14T00:30:55.549Z,17.40
2018-04-14T00:33:23.343Z,17.40
2018-04-14T00:35:51.156Z,17.40
2018-04-14T00:38:18.947Z,17.50
2018-04-14T00:40:46.789Z,17.40
2018-04-14T00:43:14.590Z,17.30
2018-04-14T00:45:42.350Z,17.30
2018-04-14T00:48:10.134Z,17.30
2018-04-14T00:50:38.010Z,17.30
2018-04-14T00:53:17.642Z,17.30
2018-04-14T00:55:45.486Z,17.30
2018-04-14T00:58:13.434Z,17.30
2018-04-14T01:00:41.302Z,17.20
2018-04-14T01:03:10.031Z,17.20
2018-04-14T01:05:45.861Z,17.10
2018-04-14T01:08:13.647Z,17.10
2018-04-14T01:10:41.425Z,17.00
2018-04-14T01:13:09.277Z,17.00
2018-04-14T01:15:37.118Z,17.10
2018-04-14T01:18:05.089Z,17.10
2018-04-14T01:20:32.957Z,17.10
2018-04-14T01:23:00.797Z,17.00
2018-04-14T01:25:28.747Z,17.00
2018-04-14T01:27:56.582Z,16.90
2018-04-14T01:30:24.400Z,16.90
2018-04-14T01:32:52.941Z,16.90
2018-04-14T01:35:20.771Z,16.80
2018-04-14T01:37:49.409Z,16.90
2018-04-14T01:40:17.237Z,16.80
2018-04-14T01:42:45.129Z,16.80
2018-04-14T01:45:12.992Z,16.80
2018-04-14T01:47:40.796Z,16.70
2018-04-14T01:50:08.716Z,16.70
2018-04-14T01:52:36.631Z,16.70
2018-04-14T01:55:04.515Z,16.70
2018-04-14T01:57:32.560Z,16.70
2018-04-14T02:00:00.420Z,16.70
2018-04-14T02:02:28.283Z,16.70
2018-04-14T02:04:56.101Z,16.70
2018-04-14T02:07:23.907Z,16.60
2018-04-14T02:09:51.782Z,16.60
2018-04-14T02:12:19.565Z,16.60
2018-04-14T02:14:47.387Z,16.60
2018-04-14T02:17:16.012Z,16.50
2018-04-14T02:19:43.815Z,16.50
2018-04-14T02:22:11.625Z,16.50
2018-04-14T02:24:39.428Z,16.60
2018-04-14T02:27:07.246Z,16.60
2018-04-14T02:29:35.817Z,16.50
2018-04-14T02:32:03.649Z,16.50
2018-04-14T02:34:31.436Z,16.50
2018-04-14T02:36:59.314Z,16.50
2018-04-14T02:39:27.867Z,16.50
2018-04-14T02:41:55.677Z,16.40
2018-04-14T02:44:23.430Z,16.50
2018-04-14T02:46:51.229Z,16.50
2018-04-14T02:49:18.998Z,16.50
2018-04-14T02:51:47.552Z,16.50
2018-04-14T02:54:15.395Z,16.50
2018-04-14T02:56:43.205Z,16.50
2018-04-14T02:59:11.766Z,16.40
2018-04-14T03:01:40.603Z,16.40
2018-04-14T03:04:08.439Z,16.40
2018-04-14T03:06:36.217Z,16.40
2018-04-14T03:09:05.575Z,16.40
2018-04-14T03:11:33.328Z,16.40
2018-04-14T03:14:01.099Z,16.40
2018-04-14T03:16:28.933Z,16.40
2018-04-14T03:18:57.575Z,16.30
2018-04-14T03:21:25.449Z,16.30
2018-04-14T03:23:53.314Z,16.30
2018-04-14T03:26:21.308Z,16.40
2018-04-14T03:28:49.836Z,16.40
2018-04-14T03:31:17.654Z,16.30
2018-04-14T03:33:45.485Z,16.40
2018-04-14T03:36:13.268Z,16.40
2018-04-14T03:38:41.082Z,16.30
2018-04-14T03:41:09.704Z,16.30
2018-04-14T03:43:37.532Z,16.30
2018-04-14T03:46:06.120Z,16.30
2018-04-14T03:48:34.734Z,16.30
2018-04-14T03:51:02.562Z,16.20
2018-04-14T03:53:30.454Z,16.30
2018-04-14T03:55:59.012Z,16.20
2018-04-14T03:58:27.035Z,16.10
2018-04-14T04:00:54.842Z,16.20
2018-04-14T04:03:22.584Z,16.20
2018-04-14T04:05:50.379Z,16.20
2018-04-14T04:08:18.197Z,16.20
2018-04-14T04:10:45.975Z,16.30
2018-04-14T04:13:13.738Z,16.20
2018-04-14T04:15:41.603Z,16.20
2018-04-14T04:18:09.428Z,16.10
2018-04-14T04:21:02.850Z,16.10
2018-04-14T04:23:49.131Z,16.10
2018-04-14T04:26:16.972Z,16.20
2018-04-14T04:28:45.555Z,16.20
2018-04-14T04:31:16.935Z,16.20
2018-04-14T04:33:44.756Z,16.20
2018-04-14T04:36:12.584Z,16.20
2018-04-14T04:38:40.395Z,16.20
2018-04-14T04:41:08.160Z,16.20
2018-04-14T04:43:36.730Z,16.20
2018-04-14T04:46:04.534Z,16.20
2018-04-14T04:48:32.332Z,16.10
2018-04-14T04:51:00.059Z,16.10
2018-04-14T04:53:27.807Z,16.10
2018-04-14T04:55:55.594Z,16.10
2018-04-14T04:58:23.371Z,16.20
2018-04-14T05:00:51.126Z,16.20
2018-04-14T05:03:18.886Z,16.20
2018-04-14T05:05:46.677Z,16.20
2018-04-14T05:08:15.729Z,16.20
2018-04-14T05:10:45.878Z,16.20
2018-04-14T05:13:16.980Z,16.20
2018-04-14T05:15:47.755Z,16.30
2018-04-14T05:18:18.734Z,16.20
2018-04-14T05:20:48.908Z,16.30
2018-04-14T05:23:19.946Z,16.30
2018-04-14T05:25:50.492Z,16.30
2018-04-14T05:28:22.283Z,16.30
2018-04-14T05:30:52.254Z,16.30
2018-04-14T05:33:23.043Z,16.30
2018-04-14T05:35:53.834Z,16.30
2018-04-14T05:38:23.753Z,16.40
2018-04-14T05:40:55.199Z,16.40
2018-04-14T05:43:25.899Z,16.40
2018-04-14T05:45:56.391Z,16.40
2018-04-14T05:48:27.024Z,16.40
2018-04-14T05:50:57.590Z,16.40
2018-04-14T05:53:27.793Z,16.40
2018-04-14T05:55:58.240Z,16.50
2018-04-14T05:58:27.703Z,16.50
2018-04-14T06:00:57.526Z,16.50
2018-04-14T06:03:27.658Z,16.50
2018-04-14T06:05:58.152Z,16.60
2018-04-14T06:08:27.798Z,16.50
2018-04-14T06:10:58.521Z,16.50
2018-04-14T06:13:28.242Z,16.50
2018-04-14T06:15:59.225Z,16.60
2018-04-14T06:18:28.968Z,16.50
2018-04-14T06:20:57.869Z,16.60
2018-04-14T06:23:26.177Z,16.60
2018-04-14T06:25:54.125Z,16.40
2018-04-14T06:28:22.451Z,16.50
2018-04-14T06:30:51.661Z,16.50
2018-04-14T06:33:19.515Z,16.60
2018-04-14T06:35:49.060Z,16.50
2018-04-14T06:38:17.413Z,16.60
2018-04-14T06:40:46.567Z,16.60
2018-04-14T06:43:15.473Z,16.50
2018-04-14T06:45:44.108Z,16.50
2018-04-14T06:48:13.071Z,16.50
2018-04-14T06:50:41.643Z,16.70
2018-04-14T06:53:09.466Z,16.60
2018-04-14T06:55:37.355Z,16.70
2018-04-14T06:58:05.218Z,16.60
2018-04-14T07:00:33.030Z,16.60
2018-04-14T07:03:00.808Z,16.70
2018-04-14T07:05:29.421Z,16.60
2018-04-14T07:07:57.252Z,16.60
2018-04-14T07:10:25.110Z,16.70
2018-04-14T07:12:52.906Z,16.70
2018-04-14T07:15:20.686Z,16.70
2018-04-14T07:17:48.442Z,16.80
2018-04-14T07:20:16.187Z,16.80
2018-04-14T07:22:44.663Z,16.80
2018-04-14T07:25:12.394Z,16.80
2018-04-14T07:27:40.252Z,16.80
2018-04-14T07:30:09.450Z,16.80
2018-04-14T07:32:37.301Z,17.00
2018-04-14T07:35:06.415Z,17.00
2018-04-14T07:37:36.331Z,17.00
2018-04-14T07:40:06.430Z,17.10
2018-04-14T07:42:34.457Z,17.20
2018-04-14T07:45:02.370Z,17.30
2018-04-14T07:47:30.313Z,17.50
2018-04-14T07:49:58.187Z,17.50
2018-04-14T07:52:26.865Z,17.40
2018-04-14T07:54:54.885Z,17.40
2018-04-14T07:57:22.739Z,17.40
2018-04-14T08:00:02.605Z,17.40
2018-04-14T08:02:31.739Z,17.50
2018-04-14T08:04:59.560Z,17.50
2018-04-14T08:07:27.364Z,17.50
2018-04-14T08:09:55.489Z,17.60
2018-04-14T08:12:23.377Z,17.60
2018-04-14T08:14:51.190Z,17.60
2018-04-14T08:17:19.111Z,17.60
2018-04-14T08:19:46.919Z,17.60
2018-04-14T08:22:15.527Z,17.70
2018-04-14T08:24:43.481Z,17.60
2018-04-14T08:27:12.123Z,17.70
2018-04-14T08:29:40.665Z,17.70
2018-04-14T08:32:09.858Z,17.70
2018-04-14T08:34:37.674Z,17.60
2018-04-14T08:37:05.583Z,17.70
2018-04-14T08:39:34.012Z,17.80
2018-04-14T08:44:40.959Z,18.00
2018-04-14T08:47:09.572Z,18.70
2018-04-14T08:49:37.614Z,18.60
2018-04-14T08:52:05.544Z,18.90
2018-04-14T08:54:34.195Z,18.70
2018-04-14T08:57:02.134Z,18.70
2018-04-14T08:59:29.899Z,18.80
2018-04-14T09:01:59.508Z,19.10
2018-04-14T09:04:27.422Z,19.40
2018-04-14T09:06:57.511Z,19.60
2018-04-14T09:09:27.839Z,19.20
2018-04-14T09:11:55.608Z,19.10
2018-04-14T09:14:23.475Z,18.90
2018-04-14T09:16:52.309Z,18.80
2018-04-14T09:19:26.025Z,18.80
2018-04-14T09:21:55.489Z,18.80
2018-04-14T09:24:27.147Z,18.70
2018-04-14T09:27:00.591Z,18.70
2018-04-14T09:29:28.705Z,18.70
2018-04-14T09:32:02.660Z,18.70
2018-04-14T09:34:33.798Z,19.00
2018-04-14T09:37:06.395Z,19.00
2018-04-14T09:58:18.402Z,18.80
2018-04-14T10:00:51.682Z,18.70
2018-04-14T10:03:24.198Z,18.80
2018-04-14T10:05:53.842Z,19.30
2018-04-14T10:08:21.722Z,19.30
2018-04-14T10:10:49.883Z,19.40
2018-04-14T10:13:21.342Z,19.50
2018-04-14T10:16:05.031Z,19.40
2018-04-14T10:18:37.954Z,19.20
2018-04-14T10:21:07.165Z,19.20
2018-04-14T10:23:35.819Z,19.40
2018-04-14T10:26:06.080Z,19.30
2018-04-14T10:28:34.633Z,19.30
2018-04-14T10:31:02.402Z,19.30
2018-04-14T10:33:30.181Z,19.20
2018-04-14T10:35:58.889Z,19.30
2018-04-14T10:38:27.427Z,19.30
2018-04-14T10:40:55.251Z,19.30
2018-04-14T10:43:25.543Z,19.30
2018-04-14T10:45:53.428Z,19.30
2018-04-14T10:48:31.524Z,19.40
2018-04-14T10:54:44.884Z,19.60
2018-04-14T10:57:12.670Z,19.70
2018-04-14T10:59:41.274Z,19.70
2018-04-14T11:02:09.037Z,19.70
2018-04-14T11:04:36.968Z,19.70
2018-04-14T11:07:21.198Z,19.80
2018-04-14T11:09:49.002Z,19.90
2018-04-14T11:12:16.884Z,19.90
2018-04-14T11:14:44.727Z,20.00
2018-04-14T11:17:12.726Z,19.90
2018-04-14T11:19:41.251Z,19.90
2018-04-14T11:22:09.031Z,19.90
2018-04-14T11:24:36.868Z,19.90
2018-04-14T11:27:04.641Z,19.80
2018-04-14T11:29:32.478Z,19.90
2018-04-14T11:32:01.037Z,19.90
2018-04-14T11:34:28.850Z,19.80
2018-04-14T11:37:07.577Z,19.80
2018-04-14T11:39:36.169Z,19.90
2018-04-14T11:42:04.467Z,19.90
2018-04-14T11:44:33.740Z,20.00
2018-04-14T11:47:01.721Z,19.90
2018-04-14T11:49:31.669Z,20.00
2018-04-14T11:52:00.758Z,20.00
2018-04-14T11:54:28.677Z,20.00
2018-04-14T11:56:56.893Z,20.00
2018-04-14T11:59:25.222Z,20.00
2018-04-14T12:01:53.501Z,20.00
2018-04-14T12:04:23.529Z,20.10
2018-04-14T12:06:52.963Z,20.00
2018-04-14T12:09:22.772Z,20.00
2018-04-14T12:11:51.552Z,20.00
2018-04-14T12:14:21.130Z,20.10
2018-04-14T12:16:49.677Z,20.10
2018-04-14T12:19:18.614Z,20.10
2018-04-14T12:21:47.056Z,20.20
2018-04-14T12:24:16.406Z,20.00
2018-04-14T12:26:46.636Z,19.90
2018-04-14T12:29:15.864Z,20.20
2018-04-14T12:31:44.150Z,20.10
2018-04-14T12:34:13.815Z,20.10
2018-04-14T12:36:42.070Z,20.10
2018-04-14T12:39:30.302Z,20.00
2018-04-14T12:42:16.769Z,20.00
2018-04-14T12:45:32.956Z,20.00
2018-04-14T12:48:01.115Z,20.00
2018-04-14T12:50:32.325Z,20.00
2018-04-14T12:53:04.398Z,20.00
2018-04-14T12:55:33.363Z,20.10
2018-04-14T12:58:04.371Z,20.00
2018-04-14T13:00:36.527Z,20.00
2018-04-14T13:03:05.460Z,20.00
2018-04-14T13:05:35.025Z,20.00
2018-04-14T13:08:05.645Z,20.00
2018-04-14T13:10:37.867Z,20.00
2018-04-14T13:13:11.866Z,20.00
2018-04-14T13:15:40.810Z,20.10
2018-04-14T13:21:44.105Z,20.20
2018-04-14T13:24:13.295Z,20.20
